Share

Clinton, OK

Clinton Municipal (KCLK) Elev 1614 ft | 35.54 °N, 98.93 °W | Change Station

Current weather conditions updated 22 minutes ago

Rain
Rain
59 °F
Feels Like 59 °F
N
12
Wind Variable Wind from SSE
Sunrise 6:56 AM
Sunset 8:13 PM
Moon Waning Gibbous

Tomorrow is forecast to be Warmer than today. Partly cloudy with a stray thunderstorm.

Pressure 30.02 in
Visibility 7.0 miles
Clouds Scattered Clouds 4600 ft
Mostly Cloudy 7500 ft
Overcast 8500 ft
Dew Point 55 °F
Humidity 88%
Rainfall 0.55 in
Snow Depth Not available.
UV 0 out of 16
Pollen 8.70 out of 12
Air Quality Not available.
Flu Activity Regional
METAR KCLK 210435Z AUTO 16010KT 7SM RA SCT046 BKN075 OVC085 15/13 A3002 RMK AO2 LTG DSNT S P0011

More Conditions Fewer Conditions

Pressure 30.02 in
Visibility 7.0 miles
Clouds Scattered Clouds 4600 ft
Mostly Cloudy 7500 ft
Overcast 8500 ft
Dew Point 55 °F
Humidity 88%
Rainfall 0.55 in
Snow Depth Not available.
UV 0 out of 16
Pollen 8.70 out of 12
Air Quality Not available.
Flu Activity Regional
METAR KCLK 210435Z AUTO 16010KT 7SM RA SCT046 BKN075 OVC085 15/13 A3002 RMK AO2 LTG DSNT S P0011

More Conditions Fewer Conditions

10-Day Weather Forecast

Almanac

Astronomy

Apr. 20, 2014 Rise Set
Actual Time 6:56 AM CDT 8:13 PM CDT
Civil Twilight 6:30 AM CDT 8:39 PM CDT
Nautical Twilight 5:58 AM CDT 9:11 PM CDT
Astronomical Twilight 5:25 AM CDT 9:44 PM CDT
Moon 12:50 AM CDT (4/20) 11:23 AM CDT (4/20)
Length of Visible Light 14h 09m
Length of Day
13h 16m
Tomorrow will be 2m 5s longer.
Waning Gibbous, 63% of the Moon is Illuminated
Apr 21
Waning Gibbous
Apr 22
Last Quarter
Apr 29
New
May 6
First Quarter
May 14
Full

Yesterday's Extremes

State Highs State Lows

Community

  • Snowy Robin
    Snowy Robin
  • Sun Pillar and Geese
    Sun Pillar and Geese
  • Showers on the Way
    Showers on the Way
  • Easter Morning Fog
    Easter Morning Fog
  • Easter Dance
    Easter Dance

WunderPhotos

Upload Photos

1,703,559 photos uploaded!

WunderBlogs® & News

Nearby

Snow Depth

Station Depth Elevation
No new snow has been reported.

Coastal Water Temperatures

Place Temperature
No Stations Reporting

Earthquake Activity

City Distance Mag. Time & Date
Helena, Oklahoma 89 miles 3.4 6:50 AM CDT
2014-04-17
Perry, Oklahoma 102 miles 2.7 11:52 AM CDT
2014-04-16
Crescent, Oklahoma 86 miles 2.8 7:36 PM CDT
2014-04-15
Perry, Oklahoma 109 miles 2.5 1:42 PM CDT
2014-04-14
Minimum magnitude displayed is 2.5.

Nearby Weather Stations

Station Location Temp. Dew Point Humidity Wind Precip. Elev Updated Type
Custer City, Custer City, OK 60.4 °F 58 °F 93% SSW  at  7.0 mph 0.05 in / hr 1775 ft 11:57 PM CDT Rapid Fire
HADS MUNICIPAL AIRPORT NEAR ELK CITY OK, Elk City, OK 60 °F - - North  at  - 0.11 in / hr 1981 ft 11:00 PM CDT MADIS

Show More Stations Show Fewer Stations

What do you think?

We're not finished. Please let us know what you like, what you don't like, and what you are still missing.